Time;durP1;ratioP1;P1;durP2;ratioP2;P2;SDS_P1;SDS_P2;PMS_P1;PMS_P2;Temp;Humidity;BMP_temperature;BMP_pressure;BME280_temperature;BME280_humidity;BME280_pressure;Samples;Min_cycle;Max_cycle;Signal;HPM_P1;HPM_P2
2022/06/28 00:00:44;;;;;;;0.70;0.60;;;19.70;99.90;;;;;;5004775;28;20061;-78
2022/06/28 00:03:11;;;;;;;2.40;0.43;;;19.70;99.90;;;;;;5001686;28;20049;-79
2022/06/28 00:05:37;;;;;;;0.63;0.57;;;19.60;99.90;;;;;;5011291;28;20050;-79
2022/06/28 00:08:04;;;;;;;2.88;0.70;;;19.60;99.90;;;;;;5002325;28;20428;-79
2022/06/28 00:10:31;;;;;;;2.13;0.73;;;19.50;99.90;;;;;;5009643;28;20054;-78
2022/06/28 00:12:59;;;;;;;1.08;0.70;;;19.50;99.90;;;;;;5002904;28;20046;-79
2022/06/28 00:18:11;;;;;;;1.30;0.57;;;19.50;99.90;;;;;;5003532;28;20042;-80
2022/06/28 00:20:38;;;;;;;1.50;0.70;;;19.50;99.90;;;;;;5007094;28;20057;-79
2022/06/28 00:23:05;;;;;;;2.25;0.50;;;19.50;99.90;;;;;;5006977;28;20451;-79
2022/06/28 00:25:32;;;;;;;1.88;0.60;;;19.50;99.90;;;;;;5006538;28;20472;-80
2022/06/28 00:27:58;;;;;;;3.33;0.77;;;19.50;99.90;;;;;;5007908;28;20046;-79
2022/06/28 00:30:25;;;;;;;1.38;0.70;;;19.50;99.90;;;;;;5011798;28;20097;-78
2022/06/28 00:32:52;;;;;;;2.67;0.75;;;19.50;99.90;;;;;;5023310;28;20085;-78
2022/06/28 00:35:19;;;;;;;2.20;0.60;;;19.40;99.90;;;;;;5012111;28;20050;-78
2022/06/28 00:37:46;;;;;;;1.75;0.60;;;19.40;99.90;;;;;;5007781;28;20092;-79
2022/06/28 00:40:12;;;;;;;4.55;0.95;;;19.40;99.90;;;;;;5020499;28;20047;-78
2022/06/28 00:42:39;;;;;;;1.20;0.40;;;19.40;99.90;;;;;;5006132;28;20084;-77
2022/06/28 00:45:07;;;;;;;2.05;0.63;;;19.30;99.90;;;;;;5021488;28;20086;-81
2022/06/28 00:47:34;;;;;;;1.63;0.68;;;19.30;99.90;;;;;;5006250;28;20050;-79
2022/06/28 00:50:02;;;;;;;1.77;0.60;;;19.30;99.90;;;;;;5007084;28;20058;-79
2022/06/28 00:52:28;;;;;;;1.40;0.70;;;19.20;99.90;;;;;;5005782;28;20046;-79
2022/06/28 00:54:55;;;;;;;2.50;0.90;;;19.20;99.90;;;;;;5022248;28;20052;-78
2022/06/28 00:57:22;;;;;;;6.05;0.73;;;19.10;99.90;;;;;;5004625;28;20524;-79
2022/06/28 00:59:48;;;;;;;4.03;0.73;;;19.10;99.90;;;;;;5007642;28;20089;-79
2022/06/28 01:02:15;;;;;;;1.55;0.70;;;19.10;99.90;;;;;;5004375;28;20506;-78
2022/06/28 01:04:43;;;;;;;4.38;0.60;;;19.10;99.90;;;;;;5007186;28;20503;-79
2022/06/28 01:07:09;;;;;;;1.40;0.70;;;19.00;99.90;;;;;;5005156;28;20058;-79
2022/06/28 01:09:36;;;;;;;2.53;0.60;;;19.00;99.90;;;;;;5006095;28;20058;-78
2022/06/28 01:12:03;;;;;;;1.25;0.52;;;19.00;99.90;;;;;;5005556;28;20141;-79
2022/06/28 01:14:30;;;;;;;2.80;0.88;;;19.00;99.90;;;;;;5005436;28;20050;-79
2022/06/28 01:16:56;;;;;;;1.60;0.75;;;19.00;99.90;;;;;;5006220;28;20587;-79
2022/06/28 01:19:23;;;;;;;2.13;0.70;;;19.00;99.90;;;;;;5010781;28;20419;-78
2022/06/28 01:21:50;;;;;;;2.25;0.80;;;19.00;99.90;;;;;;5007205;28;20046;-79
2022/06/28 01:24:17;;;;;;;0.90;0.70;;;19.00;99.90;;;;;;5002898;28;20153;-79
2022/06/28 01:26:46;;;;;;;0.77;0.70;;;19.00;99.90;;;;;;4995963;28;20050;-79
2022/06/28 01:29:13;;;;;;;3.08;0.73;;;19.00;99.90;;;;;;4995307;28;20054;-79
2022/06/28 01:31:40;;;;;;;0.85;0.50;;;19.10;99.90;;;;;;4995303;28;20417;-79
2022/06/28 01:34:08;;;;;;;0.65;0.50;;;19.10;99.90;;;;;;5002002;28;20050;-79
2022/06/28 01:36:35;;;;;;;4.47;0.63;;;19.10;99.90;;;;;;5003629;28;20422;-79
2022/06/28 01:39:03;;;;;;;1.83;0.60;;;19.10;99.90;;;;;;5004839;28;20401;-77
2022/06/28 01:41:32;;;;;;;3.10;0.90;;;19.10;99.90;;;;;;5003837;28;20085;-79
2022/06/28 01:44:02;;;;;;;4.97;0.60;;;19.10;99.90;;;;;;5007737;28;20050;-77
2022/06/28 01:46:29;;;;;;;6.57;0.90;;;19.20;99.90;;;;;;5004053;28;20080;-78
2022/06/28 01:48:56;;;;;;;3.45;0.60;;;19.10;99.90;;;;;;5006087;28;20086;-77
2022/06/28 01:51:22;;;;;;;1.75;0.68;;;19.10;99.90;;;;;;5004699;28;20081;-79
2022/06/28 01:53:49;;;;;;;3.15;0.70;;;19.10;99.90;;;;;;5005331;28;20053;-79
2022/06/28 01:56:16;;;;;;;1.73;0.88;;;19.10;99.90;;;;;;5004824;28;20146;-78
2022/06/28 01:58:43;;;;;;;0.75;0.60;;;19.20;99.90;;;;;;5004135;28;20046;-79
2022/06/28 02:01:10;;;;;;;3.70;0.80;;;19.20;99.90;;;;;;5005760;28;20081;-78
2022/06/28 02:03:37;;;;;;;1.95;0.60;;;19.20;99.90;;;;;;5003881;28;20475;-79
2022/06/28 02:06:03;;;;;;;0.73;0.60;;;19.10;99.90;;;;;;5006700;28;20056;-79
2022/06/28 02:08:32;;;;;;;2.15;0.73;;;19.20;99.90;;;;;;5002339;28;20050;-78
2022/06/28 02:11:00;;;;;;;1.45;0.60;;;19.10;99.90;;;;;;5006009;28;20061;-79
2022/06/28 02:13:26;;;;;;;1.15;0.77;;;19.00;99.90;;;;;;5019313;28;20427;-79
2022/06/28 02:15:53;;;;;;;3.45;0.90;;;18.90;99.90;;;;;;5011864;28;20423;-79
2022/06/28 02:18:20;;;;;;;1.08;0.63;;;18.80;99.90;;;;;;5004007;28;20136;-76
2022/06/28 02:20:47;;;;;;;2.58;0.60;;;18.80;99.90;;;;;;5004015;28;20157;-78
2022/06/28 02:23:14;;;;;;;4.30;1.60;;;18.80;99.90;;;;;;5003844;28;20294;-79
2022/06/28 02:25:40;;;;;;;1.30;0.88;;;18.80;99.90;;;;;;5003823;28;20053;-79
2022/06/28 02:28:07;;;;;;;2.63;0.70;;;18.80;99.90;;;;;;5005724;28;20054;-79
2022/06/28 02:30:34;;;;;;;5.53;0.95;;;18.80;99.90;;;;;;5002375;28;20050;-79
2022/06/28 02:33:00;;;;;;;5.47;1.02;;;18.70;99.90;;;;;;5006112;28;20503;-80
2022/06/28 02:40:58;;;;;;;3.58;0.90;;;18.60;99.90;;;;;;5004347;28;20070;-79
2022/06/28 02:43:24;;;;;;;1.67;0.60;;;18.60;99.90;;;;;;5003079;28;20081;-78
2022/06/28 02:45:51;;;;;;;1.33;1.05;;;18.70;99.90;;;;;;5005059;28;20081;-79
2022/06/28 02:48:19;;;;;;;0.68;0.63;;;18.60;99.90;;;;;;5002431;28;20393;-79
2022/06/28 02:50:45;;;;;;;4.60;0.90;;;18.60;99.90;;;;;;5005856;28;20054;-81
2022/06/28 02:53:12;;;;;;;1.95;0.63;;;18.60;99.90;;;;;;4993824;28;20050;-79
2022/06/28 02:55:39;;;;;;;3.50;0.85;;;18.70;99.90;;;;;;4993755;28;20074;-78
2022/06/28 02:58:06;;;;;;;0.93;0.70;;;18.70;99.90;;;;;;4993738;28;20487;-81
2022/06/28 03:00:32;;;;;;;1.63;0.80;;;18.70;99.90;;;;;;5000341;28;20485;-79
2022/06/28 03:02:59;;;;;;;2.75;0.98;;;18.70;99.90;;;;;;5003398;28;20056;-79
2022/06/28 03:05:26;;;;;;;2.47;0.80;;;18.70;99.90;;;;;;5003605;28;20084;-79
2022/06/28 03:07:53;;;;;;;3.38;0.80;;;18.60;99.90;;;;;;5003859;28;20078;-79
2022/06/28 03:10:19;;;;;;;2.47;0.70;;;18.70;99.90;;;;;;5009224;28;20061;-78
2022/06/28 03:12:46;;;;;;;2.15;0.77;;;18.70;99.90;;;;;;5004499;28;20053;-79
2022/06/28 03:15:13;;;;;;;2.15;0.85;;;18.70;99.90;;;;;;5002093;28;20047;-80
2022/06/28 03:17:46;;;;;;;4.40;1.05;;;18.70;99.90;;;;;;5002089;28;20050;-79
2022/06/28 03:20:13;;;;;;;2.97;0.90;;;18.60;99.90;;;;;;5003591;28;20120;-80
2022/06/28 03:22:40;;;;;;;3.15;0.95;;;18.60;99.90;;;;;;5002645;28;20105;-78
2022/06/28 03:25:08;;;;;;;1.30;0.68;;;18.60;99.90;;;;;;5003191;28;20049;-79
2022/06/28 03:27:34;;;;;;;2.00;0.88;;;18.60;99.90;;;;;;5003458;28;20050;-79
2022/06/28 03:30:03;;;;;;;1.05;0.60;;;18.60;99.90;;;;;;5002139;28;20052;-79
2022/06/28 03:32:30;;;;;;;3.47;0.90;;;18.60;99.90;;;;;;5004234;28;20056;-79
2022/06/28 03:34:57;;;;;;;3.10;0.80;;;18.60;99.90;;;;;;5001314;28;20046;-79
2022/06/28 03:37:23;;;;;;;5.15;1.00;;;18.60;99.90;;;;;;5000619;28;20042;-79
2022/06/28 03:39:51;;;;;;;1.98;0.80;;;18.60;99.90;;;;;;5003898;28;20041;-79
2022/06/28 03:42:17;;;;;;;2.78;0.95;;;18.60;99.90;;;;;;5000857;28;20050;-79
2022/06/28 03:44:44;;;;;;;2.15;0.90;;;18.50;99.90;;;;;;5010404;28;20052;-79
2022/06/28 03:47:11;;;;;;;6.22;1.60;;;18.50;99.90;;;;;;5002608;28;20081;-79
2022/06/28 03:49:38;;;;;;;4.35;0.90;;;18.60;99.90;;;;;;5002508;28;20054;-79
2022/06/28 03:52:05;;;;;;;4.18;0.88;;;18.60;99.90;;;;;;5003036;28;20054;-78
2022/06/28 03:54:31;;;;;;;3.15;0.80;;;18.60;99.90;;;;;;5008471;28;20061;-79
2022/06/28 03:56:58;;;;;;;2.45;0.73;;;18.60;99.90;;;;;;5019160;28;20042;-79
2022/06/28 03:59:25;;;;;;;3.03;0.90;;;18.60;99.90;;;;;;5000943;28;20538;-79
2022/06/28 04:01:52;;;;;;;10.88;1.05;;;18.60;99.90;;;;;;5004515;28;20078;-78
2022/06/28 04:04:19;;;;;;;2.35;0.90;;;18.60;99.90;;;;;;5001173;28;20050;-78
2022/06/28 04:06:46;;;;;;;1.90;0.90;;;18.60;99.90;;;;;;5004822;28;20073;-80
2022/06/28 04:09:12;;;;;;;2.63;1.02;;;18.60;99.90;;;;;;5003266;28;20077;-78
2022/06/28 04:11:39;;;;;;;3.83;1.85;;;18.60;99.90;;;;;;5002162;28;20061;-77
2022/06/28 04:14:06;;;;;;;2.83;1.60;;;18.60;99.90;;;;;;5005147;28;20050;-78
2022/06/28 04:16:32;;;;;;;1.52;1.10;;;18.70;99.90;;;;;;5002274;28;20073;-79
2022/06/28 04:18:59;;;;;;;4.15;1.00;;;18.70;99.90;;;;;;5002654;28;20051;-78
2022/06/28 04:21:28;;;;;;;2.67;0.90;;;18.70;99.90;;;;;;5002002;28;20050;-76
2022/06/28 04:23:55;;;;;;;5.10;1.08;;;18.70;99.90;;;;;;5004083;28;20042;-78
2022/06/28 04:26:21;;;;;;;3.97;1.50;;;18.70;99.90;;;;;;5004631;28;20054;-79
2022/06/28 04:28:48;;;;;;;2.72;1.35;;;18.70;99.90;;;;;;4992510;28;20135;-79
2022/06/28 04:31:15;;;;;;;1.38;1.20;;;18.60;99.90;;;;;;4996107;28;20133;-79
2022/06/28 04:33:42;;;;;;;3.78;1.10;;;18.60;99.90;;;;;;5001231;28;20050;-79
2022/06/28 04:36:09;;;;;;;2.72;0.90;;;18.50;99.90;;;;;;4996772;28;20046;-79
2022/06/28 04:38:36;;;;;;;3.15;1.10;;;18.50;99.90;;;;;;5002193;28;20173;-79
2022/06/28 04:41:02;;;;;;;1.55;1.02;;;18.50;99.90;;;;;;5006676;28;20054;-79
2022/06/28 04:43:29;;;;;;;2.05;1.02;;;18.30;99.90;;;;;;5006479;28;20053;-78
2022/06/28 04:45:56;;;;;;;2.25;1.10;;;18.10;99.90;;;;;;5005948;28;20050;-79
2022/06/28 04:48:23;;;;;;;1.77;1.42;;;18.00;99.90;;;;;;5007225;28;20046;-77
2022/06/28 04:50:49;;;;;;;4.30;1.58;;;18.00;99.90;;;;;;5003215;28;20054;-79
2022/06/28 04:53:16;;;;;;;2.45;1.60;;;18.00;99.90;;;;;;5008496;28;20046;-80
2022/06/28 04:55:43;;;;;;;4.05;1.65;;;18.10;99.90;;;;;;5004824;28;20519;-80
2022/06/28 04:58:10;;;;;;;4.05;2.10;;;18.10;99.90;;;;;;5007226;28;20393;-78
2022/06/28 05:00:37;;;;;;;4.32;1.70;;;18.00;99.90;;;;;;5005143;28;20046;-79
2022/06/28 05:03:24;;;;;;;5.28;1.98;;;18.10;99.90;;;;;;5004906;28;20050;-79
2022/06/28 05:05:51;;;;;;;7.50;2.42;;;18.20;99.90;;;;;;5009394;28;20058;-80
2022/06/28 05:08:17;;;;;;;4.38;2.00;;;18.10;99.90;;;;;;5008316;28;20420;-79
2022/06/28 05:10:44;;;;;;;5.43;2.40;;;18.20;99.90;;;;;;5010180;28;20571;-79
2022/06/28 05:13:11;;;;;;;6.70;2.60;;;18.20;99.90;;;;;;5009624;28;20427;-77
2022/06/28 05:15:38;;;;;;;2.55;1.98;;;18.30;99.90;;;;;;5008935;28;20049;-80
2022/06/28 05:18:04;;;;;;;5.38;3.03;;;18.30;99.90;;;;;;5010026;28;20424;-79
2022/06/28 05:20:31;;;;;;;5.28;2.50;;;18.30;99.90;;;;;;5007619;28;20058;-78
2022/06/28 05:22:58;;;;;;;7.47;2.25;;;18.30;99.90;;;;;;5025340;28;20153;-80
2022/06/28 05:25:25;;;;;;;7.10;2.28;;;18.30;99.90;;;;;;5007383;28;20566;-79
2022/06/28 05:27:52;;;;;;;3.75;2.03;;;18.30;99.90;;;;;;5011108;28;20050;-79
2022/06/28 05:30:19;;;;;;;6.85;2.10;;;18.40;99.90;;;;;;5007428;28;20058;-79
2022/06/28 05:32:46;;;;;;;4.85;2.20;;;18.50;99.90;;;;;;5010440;28;20050;-78
2022/06/28 05:35:12;;;;;;;2.92;2.15;;;18.60;99.90;;;;;;5004000;28;20429;-78
2022/06/28 05:37:39;;;;;;;2.95;1.98;;;18.60;99.90;;;;;;5004559;28;20047;-77
2022/06/28 05:40:06;;;;;;;6.05;1.80;;;18.70;99.90;;;;;;5004623;28;20046;-78
2022/06/28 05:42:33;;;;;;;6.55;1.73;;;18.90;99.90;;;;;;5004497;28;20048;-79
2022/06/28 05:45:00;;;;;;;4.40;2.00;;;19.00;99.90;;;;;;5020480;28;20563;-78
2022/06/28 05:47:27;;;;;;;4.00;1.88;;;19.20;99.90;;;;;;5003132;28;20058;-78
2022/06/28 05:49:53;;;;;;;4.50;1.60;;;19.30;99.90;;;;;;5005875;28;20053;-78
2022/06/28 05:52:20;;;;;;;4.95;1.65;;;19.30;99.90;;;;;;5003229;28;20061;-78
2022/06/28 05:54:47;;;;;;;3.70;1.50;;;19.40;99.90;;;;;;4995046;28;20492;-79
2022/06/28 05:57:13;;;;;;;2.67;1.67;;;19.40;99.90;;;;;;4994819;28;20082;-79
2022/06/28 05:59:40;;;;;;;2.58;1.30;;;19.30;99.90;;;;;;4994439;28;20046;-79
2022/06/28 06:02:07;;;;;;;3.72;1.60;;;19.20;99.90;;;;;;4995905;28;20053;-79
2022/06/28 06:04:34;;;;;;;2.20;1.48;;;19.20;99.90;;;;;;5005495;28;20049;-77
2022/06/28 06:07:00;;;;;;;1.52;1.35;;;19.20;99.90;;;;;;5006597;28;20060;-77
2022/06/28 06:09:27;;;;;;;4.70;1.63;;;19.20;99.90;;;;;;5017061;28;20132;-78
2022/06/28 06:11:54;;;;;;;5.63;1.45;;;19.10;99.90;;;;;;5004868;28;20047;-78
2022/06/28 06:14:22;;;;;;;3.50;1.63;;;19.00;99.90;;;;;;5002815;28;20053;-79
2022/06/28 06:16:50;;;;;;;2.28;1.83;;;18.90;99.90;;;;;;5005100;28;20485;-78
2022/06/28 06:19:17;;;;;;;5.40;1.70;;;18.90;99.90;;;;;;4993737;28;20467;-79
2022/06/28 06:21:45;;;;;;;6.20;1.98;;;19.00;99.90;;;;;;4994918;28;20560;-78
2022/06/28 06:24:12;;;;;;;4.32;1.77;;;19.00;99.90;;;;;;4994126;28;20104;-78
2022/06/28 06:26:39;;;;;;;3.90;1.92;;;19.00;99.90;;;;;;5000832;28;20058;-77
2022/06/28 06:29:06;;;;;;;2.85;2.45;;;19.00;99.90;;;;;;4999508;28;20050;-78
2022/06/28 06:31:32;;;;;;;5.47;2.25;;;19.00;99.90;;;;;;5002182;28;20527;-78
2022/06/28 06:34:00;;;;;;;4.57;1.98;;;19.00;99.90;;;;;;5004327;28;20053;-78
2022/06/28 06:36:27;;;;;;;3.15;2.25;;;19.10;99.90;;;;;;5002602;28;20046;-78
2022/06/28 06:38:54;;;;;;;4.93;2.30;;;19.20;99.90;;;;;;5001202;28;20057;-78
2022/06/28 06:41:21;;;;;;;6.38;2.30;;;19.10;99.90;;;;;;5005170;28;20092;-77
2022/06/28 06:43:48;;;;;;;3.70;2.17;;;19.20;99.90;;;;;;5001762;28;20081;-77
2022/06/28 06:46:14;;;;;;;3.67;2.70;;;19.00;99.90;;;;;;5000810;28;20526;-77
2022/06/28 06:48:49;;;;;;;5.07;2.38;;;19.10;99.90;;;;;;5003236;28;20065;-79
2022/06/28 06:51:15;;;;;;;4.63;2.67;;;19.20;99.90;;;;;;5003799;28;20053;-78
2022/06/28 06:53:42;;;;;;;5.40;2.50;;;19.10;99.90;;;;;;5002808;28;20439;-77
2022/06/28 06:56:09;;;;;;;4.85;2.53;;;19.00;99.90;;;;;;5004283;28;20050;-78
2022/06/28 06:58:36;;;;;;;6.05;2.63;;;18.90;99.90;;;;;;5001481;28;20053;-78
2022/06/28 07:01:03;;;;;;;4.35;2.40;;;19.00;99.90;;;;;;5005196;28;20056;-77
2022/06/28 07:03:46;;;;;;;3.33;2.50;;;18.90;99.90;;;;;;5004432;28;20054;-78
2022/06/28 07:06:14;;;;;;;4.05;2.20;;;18.90;99.90;;;;;;5005112;28;20499;-79
2022/06/28 07:08:41;;;;;;;3.03;1.88;;;19.00;99.90;;;;;;5001113;28;20452;-78
2022/06/28 07:11:08;;;;;;;4.45;2.45;;;18.90;99.90;;;;;;5004846;28;20081;-79
2022/06/28 07:13:34;;;;;;;2.95;2.25;;;18.80;99.90;;;;;;5001294;28;20050;-79
2022/06/28 07:16:01;;;;;;;4.25;2.03;;;18.90;99.90;;;;;;5005304;28;20081;-80
2022/06/28 07:18:31;;;;;;;3.33;2.10;;;19.10;99.90;;;;;;5002074;28;20419;-79
2022/06/28 07:20:58;;;;;;;4.55;1.90;;;19.30;99.90;;;;;;5003049;28;20049;-78
2022/06/28 07:23:25;;;;;;;2.78;1.80;;;19.40;99.90;;;;;;5001881;28;20052;-78
2022/06/28 07:25:55;;;;;;;4.05;1.90;;;19.50;99.90;;;;;;5000924;28;20054;-78
2022/06/28 07:28:22;;;;;;;2.97;1.70;;;19.50;99.90;;;;;;5000983;28;20556;-78
2022/06/28 07:30:49;;;;;;;2.33;1.75;;;19.40;99.90;;;;;;5003582;28;20068;-80
2022/06/28 07:33:15;;;;;;;5.25;1.65;;;19.50;99.90;;;;;;4993165;28;20142;-79
2022/06/28 07:35:44;;;;;;;2.47;1.70;;;19.60;99.90;;;;;;4993053;28;20046;-77
2022/06/28 07:38:11;;;;;;;2.85;1.77;;;19.70;99.90;;;;;;4992168;28;20050;-78
2022/06/28 07:40:38;;;;;;;5.82;1.70;;;19.70;99.90;;;;;;4994091;28;20046;-78
2022/06/28 07:43:04;;;;;;;5.63;1.83;;;19.70;99.90;;;;;;5001747;28;20482;-78
2022/06/28 07:45:36;;;;;;;2.80;1.38;;;19.70;99.90;;;;;;5002655;28;20051;-80
2022/06/28 07:48:04;;;;;;;3.70;1.60;;;19.80;99.90;;;;;;5001625;28;20145;-80
2022/06/28 07:53:17;;;;;;;1.80;1.58;;;20.00;99.90;;;;;;5003230;28;20526;-79
2022/06/28 07:55:43;;;;;;;3.03;1.70;;;20.10;99.90;;;;;;5001339;28;20064;-78
2022/06/28 07:58:10;;;;;;;4.35;1.88;;;20.10;99.90;;;;;;5004549;28;20132;-80
2022/06/28 08:00:37;;;;;;;5.60;1.60;;;20.00;99.90;;;;;;5005307;28;20042;-79
2022/06/28 08:03:05;;;;;;;7.35;1.77;;;20.10;99.90;;;;;;5008919;28;20084;-79
2022/06/28 08:05:32;;;;;;;2.03;1.40;;;20.10;99.90;;;;;;5005171;28;20054;-78
2022/06/28 08:07:58;;;;;;;2.72;1.75;;;20.00;99.90;;;;;;5000016;28;20405;-78
2022/06/28 08:10:25;;;;;;;3.08;1.80;;;20.10;99.90;;;;;;5003294;28;20045;-78
2022/06/28 08:12:52;;;;;;;2.55;1.50;;;20.20;99.90;;;;;;5000360;28;20104;-78
2022/06/28 08:15:19;;;;;;;2.55;1.25;;;20.30;99.90;;;;;;5002768;28;20086;-78
2022/06/28 08:17:45;;;;;;;3.95;1.40;;;20.40;99.90;;;;;;5001593;28;20097;-79
2022/06/28 08:20:12;;;;;;;1.65;1.23;;;20.40;99.90;;;;;;4999972;28;20072;-79
2022/06/28 08:22:39;;;;;;;3.13;1.60;;;20.40;99.90;;;;;;5003638;28;20535;-78
2022/06/28 08:25:07;;;;;;;1.50;1.40;;;20.50;99.90;;;;;;5000690;28;20118;-80
2022/06/28 08:27:33;;;;;;;7.65;1.77;;;20.50;99.90;;;;;;5000923;28;20079;-78
2022/06/28 08:30:00;;;;;;;2.47;1.23;;;20.50;99.90;;;;;;5004177;28;20086;-79
2022/06/28 08:32:27;;;;;;;5.85;1.67;;;20.50;99.90;;;;;;5009824;28;20080;-78
2022/06/28 08:34:54;;;;;;;4.47;1.42;;;20.50;99.90;;;;;;5001736;28;20137;-77
2022/06/28 08:37:21;;;;;;;3.17;1.42;;;20.60;99.90;;;;;;5001691;28;20484;-79
2022/06/28 08:39:48;;;;;;;3.05;1.60;;;20.60;99.90;;;;;;5004488;28;20443;-76
2022/06/28 08:42:23;;;;;;;1.30;1.20;;;20.70;99.90;;;;;;5005662;28;20053;-79
2022/06/28 08:44:51;;;;;;;3.47;1.40;;;20.70;99.90;;;;;;5011732;28;20057;-77
2022/06/28 08:47:20;;;;;;;2.17;1.42;;;20.80;99.90;;;;;;5003063;28;20054;-78
2022/06/28 08:50:10;;;;;;;3.25;1.80;;;20.90;99.90;;;;;;4995886;28;20046;-78
2022/06/28 08:52:37;;;;;;;1.90;1.65;;;21.00;99.90;;;;;;5007542;28;20132;-78
2022/06/28 08:55:06;;;;;;;4.05;1.80;;;20.90;99.90;;;;;;5005008;28;20504;-78
2022/06/28 08:57:41;;;;;;;5.15;1.52;;;20.90;99.90;;;;;;5011503;28;20054;-78
2022/06/28 09:00:10;;;;;;;4.65;1.58;;;21.00;99.90;;;;;;5011575;28;20050;-78
2022/06/28 09:02:37;;;;;;;2.97;1.40;;;21.10;99.90;;;;;;5015293;28;20041;-77
2022/06/28 09:05:05;;;;;;;1.55;1.20;;;21.30;99.90;;;;;;5011254;28;20047;-77
2022/06/28 09:07:32;;;;;;;1.73;1.25;;;21.50;99.90;;;;;;5014075;28;20097;-77
2022/06/28 09:09:59;;;;;;;2.25;1.30;;;21.80;99.90;;;;;;5013810;28;20048;-78
2022/06/28 09:12:31;;;;;;;1.92;1.13;;;21.90;99.90;;;;;;5015729;28;20057;-78
2022/06/28 09:14:57;;;;;;;2.88;1.63;;;22.00;99.90;;;;;;5006975;28;20046;-77
2022/06/28 09:17:27;;;;;;;2.25;1.23;;;22.00;99.90;;;;;;5008785;28;20513;-77
2022/06/28 09:20:01;;;;;;;3.35;1.35;;;22.10;99.90;;;;;;5016582;28;20483;-77
2022/06/28 09:22:29;;;;;;;5.38;1.27;;;22.10;99.90;;;;;;5012111;28;20046;-77
2022/06/28 09:24:56;;;;;;;2.40;1.30;;;22.20;99.90;;;;;;5012359;28;20052;-76
2022/06/28 09:27:32;;;;;;;1.75;1.13;;;22.10;99.90;;;;;;5015700;28;20085;-77
2022/06/28 09:30:00;;;;;;;3.22;1.20;;;22.20;99.90;;;;;;5016825;28;20077;-78
2022/06/28 09:32:30;;;;;;;2.75;1.23;;;22.10;99.90;;;;;;5017518;28;20070;-77
2022/06/28 09:35:03;;;;;;;1.77;1.30;;;22.10;99.90;;;;;;5014595;28;20088;-78
2022/06/28 09:37:53;;;;;;;2.60;1.10;;;22.00;99.90;;;;;;5014807;28;20129;-78
2022/06/28 09:40:21;;;;;;;3.33;1.35;;;21.90;99.90;;;;;;5009371;28;20076;-77
2022/06/28 09:43:11;;;;;;;4.22;1.58;;;21.90;99.90;;;;;;5005815;28;20088;-77
2022/06/28 09:45:40;;;;;;;4.30;1.50;;;21.90;99.90;;;;;;5006894;28;20042;-78
2022/06/28 09:48:08;;;;;;;4.20;1.50;;;21.90;99.90;;;;;;5010721;28;20423;-77
2022/06/28 09:50:36;;;;;;;5.20;1.30;;;22.00;99.90;;;;;;5010864;28;20045;-78
2022/06/28 09:53:05;;;;;;;2.17;1.10;;;22.00;99.90;;;;;;5007118;28;20843;-77
2022/06/28 09:55:36;;;;;;;3.53;1.40;;;22.20;99.90;;;;;;5008915;28;20103;-78
2022/06/28 09:58:03;;;;;;;1.65;1.38;;;22.30;99.90;;;;;;5008577;28;20077;-77
2022/06/28 10:00:30;;;;;;;3.92;1.35;;;22.30;99.90;;;;;;5009881;28;20074;-77
2022/06/28 10:02:58;;;;;;;2.70;1.38;;;22.30;99.90;;;;;;5009944;28;20491;-77
2022/06/28 10:05:26;;;;;;;3.95;1.40;;;22.40;99.90;;;;;;5008011;28;20445;-78
2022/06/28 10:07:53;;;;;;;2.40;1.20;;;22.40;99.90;;;;;;5008232;28;20569;-76
2022/06/28 10:10:22;;;;;;;3.45;1.50;;;22.50;99.90;;;;;;5008691;28;20042;-77
2022/06/28 10:15:37;;;;;;;3.42;1.45;;;22.80;99.90;;;;;;5009189;28;20393;-77
2022/06/28 10:18:07;;;;;;;1.50;1.10;;;23.00;99.90;;;;;;5008608;28;20085;-77
2022/06/28 10:20:36;;;;;;;3.78;1.23;;;23.20;99.90;;;;;;5006080;28;20081;-79
2022/06/28 10:23:24;;;;;;;2.88;1.00;;;23.30;99.90;;;;;;5011550;28;20077;-78
2022/06/28 10:26:13;;;;;;;2.58;1.13;;;23.50;99.90;;;;;;5031805;28;20078;-79
2022/06/28 10:28:44;;;;;;;3.65;1.10;;;23.50;99.90;;;;;;5032903;28;20093;-80
2022/06/28 10:31:23;;;;;;;1.38;1.13;;;23.40;99.90;;;;;;5033756;28;20034;-79
2022/06/28 10:34:22;;;;;;;2.05;1.00;;;23.30;99.90;;;;;;5009342;28;20069;-79
2022/06/28 10:36:59;;;;;;;1.20;1.10;;;23.30;99.90;;;;;;5011410;28;20058;-78
2022/06/28 10:39:29;;;;;;;3.17;1.00;;;23.40;99.90;;;;;;5024115;28;20037;-79
2022/06/28 10:41:59;;;;;;;1.42;1.08;;;23.40;99.90;;;;;;5009516;28;20046;-78
2022/06/28 10:44:27;;;;;;;2.70;1.17;;;23.50;99.90;;;;;;5012094;28;20049;-79
2022/06/28 10:47:06;;;;;;;0.90;0.90;;;23.50;99.90;;;;;;5010360;28;20056;-79
2022/06/28 10:49:44;;;;;;;2.42;1.20;;;23.50;99.90;;;;;;5010010;28;20049;-75
2022/06/28 10:52:24;;;;;;;1.40;0.90;;;23.60;99.90;;;;;;5009295;28;20046;-79
2022/06/28 10:54:56;;;;;;;2.50;1.20;;;23.50;99.90;;;;;;5008785;28;20042;-80
2022/06/28 10:57:32;;;;;;;7.57;1.42;;;23.50;99.90;;;;;;5003843;28;20054;-79
2022/06/28 11:00:03;;;;;;;2.08;0.90;;;23.50;99.90;;;;;;5011963;28;20048;-77
2022/06/28 11:02:51;;;;;;;2.92;1.13;;;23.50;99.90;;;;;;5018217;28;20038;-78
2022/06/28 11:05:20;;;;;;;3.75;1.35;;;23.40;99.90;;;;;;5011056;28;20073;-79
2022/06/28 11:08:00;;;;;;;3.22;1.23;;;23.40;99.90;;;;;;5011107;28;20050;-77
2022/06/28 11:10:27;;;;;;;;;;;23.20;99.90;;;;;;5011565;28;20050;-78
2022/06/28 11:13:14;;;;;;;2.75;1.20;;;23.20;99.90;;;;;;5021753;28;19947;-77
2022/06/28 11:15:42;;;;;;;2.55;1.33;;;23.10;99.90;;;;;;5016463;28;20046;-78
2022/06/28 11:18:28;;;;;;;3.38;1.15;;;23.10;99.90;;;;;;5015754;28;20042;-78
2022/06/28 11:20:55;;;;;;;1.50;1.40;;;23.10;99.90;;;;;;5013909;28;20037;-78
2022/06/28 11:23:29;;;;;;;2.63;1.30;;;23.00;99.90;;;;;;5016959;28;20042;-78
2022/06/28 11:28:59;;;;;;;2.85;1.13;;;23.00;99.90;;;;;;5009590;28;20049;-78
2022/06/28 11:31:29;;;;;;;2.70;1.10;;;23.10;99.90;;;;;;5012953;28;20116;-78
2022/06/28 11:33:57;;;;;;;3.45;1.40;;;23.10;99.90;;;;;;5007867;28;20128;-78
2022/06/28 11:36:32;;;;;;;2.25;1.10;;;23.10;99.90;;;;;;5008774;28;20089;-79
2022/06/28 11:39:20;;;;;;;1.58;1.08;;;23.10;99.90;;;;;;5017999;28;20042;-77
2022/06/28 11:41:51;;;;;;;2.38;1.10;;;23.10;99.90;;;;;;5017221;28;20056;-78
2022/06/28 11:44:19;;;;;;;1.42;0.90;;;23.30;99.90;;;;;;5014731;28;20071;-79
2022/06/28 11:46:48;;;;;;;1.58;1.02;;;23.40;99.90;;;;;;5017695;28;20046;-79
2022/06/28 11:49:26;;;;;;;1.88;1.10;;;23.50;99.90;;;;;;5014877;28;20050;-79
2022/06/28 11:51:52;;;;;;;2.38;1.10;;;23.60;99.90;;;;;;5017580;28;20052;-79
2022/06/28 11:54:20;;;;;;;1.05;0.93;;;23.80;99.90;;;;;;5017339;28;20045;-79
2022/06/28 11:56:48;;;;;;;1.50;1.20;;;24.00;99.90;;;;;;5012045;28;20046;-78
2022/06/28 11:59:15;;;;;;;1.35;1.20;;;24.10;99.90;;;;;;5012595;28;20067;-80
2022/06/28 12:01:43;;;;;;;1.95;1.17;;;24.20;99.90;;;;;;5010917;28;20050;-77
2022/06/28 12:04:10;;;;;;;2.28;1.15;;;24.30;99.90;;;;;;5000638;28;20072;-78
2022/06/28 12:06:43;;;;;;;4.45;0.93;;;24.40;99.90;;;;;;4999566;28;20078;-78
2022/06/28 12:09:12;;;;;;;1.95;1.13;;;24.30;99.90;;;;;;5002254;28;20056;-78
2022/06/28 12:11:44;;;;;;;0.98;0.80;;;24.30;99.90;;;;;;5002699;28;20054;-79
2022/06/28 12:14:17;;;;;;;1.80;1.08;;;24.40;99.90;;;;;;5005073;28;20050;-76
2022/06/28 12:16:58;;;;;;;1.35;1.00;;;24.50;99.90;;;;;;5008081;28;20246;-77
2022/06/28 12:19:26;;;;;;;1.90;0.90;;;24.50;99.90;;;;;;5006663;28;20050;-77
2022/06/28 12:22:14;;;;;;;1.25;0.82;;;24.60;99.90;;;;;;5006006;28;20496;-78
2022/06/28 12:24:53;;;;;;;7.35;0.90;;;24.70;99.90;;;;;;5007469;28;20057;-78
2022/06/28 12:27:31;;;;;;;2.67;0.88;;;24.80;99.90;;;;;;5006233;28;20488;-78
2022/06/28 12:29:59;;;;;;;4.68;0.85;;;24.80;99.90;;;;;;5005886;28;20051;-77
2022/06/28 12:32:27;;;;;;;1.17;1.13;;;24.90;99.90;;;;;;5005675;28;20396;-76
2022/06/28 12:35:16;;;;;;;2.38;0.82;;;25.00;99.90;;;;;;5013998;28;20503;-76
2022/06/28 12:37:43;;;;;;;3.50;1.23;;;25.10;99.90;;;;;;5012705;28;20120;-78
2022/06/28 12:40:10;;;;;;;1.60;0.63;;;25.10;99.90;;;;;;5011440;28;20499;-78
2022/06/28 12:42:38;;;;;;;1.55;1.10;;;25.10;99.90;;;;;;5009344;28;20046;-77
2022/06/28 12:45:05;;;;;;;1.00;0.80;;;25.10;99.90;;;;;;5012190;28;20052;-77
2022/06/28 12:47:35;;;;;;;1.73;0.90;;;25.10;99.90;;;;;;5009334;28;20081;-77
2022/06/28 12:50:06;;;;;;;2.53;1.27;;;25.10;99.90;;;;;;5012591;28;20092;-79
2022/06/28 12:52:35;;;;;;;1.70;0.95;;;25.10;99.90;;;;;;5013438;28;20332;-77
2022/06/28 12:55:04;;;;;;;1.45;0.95;;;25.20;99.90;;;;;;5010934;28;20471;-79
2022/06/28 12:57:30;;;;;;;2.13;0.80;;;25.40;99.90;;;;;;5013647;28;20052;-79
2022/06/28 12:59:57;;;;;;;0.93;0.80;;;25.30;99.90;;;;;;5005637;28;20046;-78
2022/06/28 13:02:24;;;;;;;2.38;1.00;;;25.20;99.90;;;;;;5007432;28;20137;-77
2022/06/28 13:04:51;;;;;;;1.08;0.80;;;25.20;99.90;;;;;;5007402;28;20045;-78
2022/06/28 13:07:20;;;;;;;1.52;1.10;;;25.10;99.90;;;;;;5023573;28;20392;-78
2022/06/28 13:09:47;;;;;;;5.10;1.10;;;25.00;99.90;;;;;;5005910;28;20483;-78
2022/06/28 13:12:15;;;;;;;1.58;1.02;;;24.90;99.90;;;;;;5004743;28;20786;-76